sensor_id;sensor_type;location;lat;lon;timestamp;P1;durP1;ratioP1;P2;durP2;ratioP2
24729;SDS011;12832;52.392;13.066;2023-02-28T00:00:51;2.30;;;2.03;;
24729;SDS011;12832;52.392;13.066;2023-02-28T00:03:18;2.55;;;2.33;;
24729;SDS011;12832;52.392;13.066;2023-02-28T00:05:44;1.98;;;1.88;;
24729;SDS011;12832;52.392;13.066;2023-02-28T00:08:10;1.95;;;1.85;;
24729;SDS011;12832;52.392;13.066;2023-02-28T00:10:38;2.20;;;2.00;;
24729;SDS011;12832;52.392;13.066;2023-02-28T00:13:05;2.53;;;2.30;;
24729;SDS011;12832;52.392;13.066;2023-02-28T00:15:32;2.50;;;2.08;;
24729;SDS011;12832;52.392;13.066;2023-02-28T00:17:58;2.10;;;1.90;;
24729;SDS011;12832;52.392;13.066;2023-02-28T00:20:24;2.08;;;1.92;;
24729;SDS011;12832;52.392;13.066;2023-02-28T00:22:52;2.65;;;1.90;;
24729;SDS011;12832;52.392;13.066;2023-02-28T00:25:19;3.17;;;2.17;;
24729;SDS011;12832;52.392;13.066;2023-02-28T00:27:47;2.40;;;2.08;;
24729;SDS011;12832;52.392;13.066;2023-02-28T00:30:18;2.47;;;2.28;;
24729;SDS011;12832;52.392;13.066;2023-02-28T00:32:45;2.05;;;1.95;;
24729;SDS011;12832;52.392;13.066;2023-02-28T00:35:11;2.28;;;2.00;;
24729;SDS011;12832;52.392;13.066;2023-02-28T00:37:38;2.10;;;1.98;;
24729;SDS011;12832;52.392;13.066;2023-02-28T00:40:05;2.63;;;2.42;;
24729;SDS011;12832;52.392;13.066;2023-02-28T00:42:34;2.42;;;2.22;;
24729;SDS011;12832;52.392;13.066;2023-02-28T00:45:00;2.60;;;2.40;;
24729;SDS011;12832;52.392;13.066;2023-02-28T00:47:29;2.38;;;2.17;;
24729;SDS011;12832;52.392;13.066;2023-02-28T00:49:55;2.13;;;1.92;;
24729;SDS011;12832;52.392;13.066;2023-02-28T00:52:21;2.60;;;2.15;;
24729;SDS011;12832;52.392;13.066;2023-02-28T00:54:47;2.50;;;2.30;;
24729;SDS011;12832;52.392;13.066;2023-02-28T00:57:13;2.40;;;2.15;;
24729;SDS011;12832;52.392;13.066;2023-02-28T00:59:39;2.40;;;2.20;;
24729;SDS011;12832;52.392;13.066;2023-02-28T01:02:05;2.90;;;2.60;;
24729;SDS011;12832;52.392;13.066;2023-02-28T01:04:32;2.95;;;2.10;;
24729;SDS011;12832;52.392;13.066;2023-02-28T01:06:58;2.20;;;2.00;;
24729;SDS011;12832;52.392;13.066;2023-02-28T01:09:24;2.67;;;2.25;;
24729;SDS011;12832;52.392;13.066;2023-02-28T01:11:51;2.47;;;2.28;;
24729;SDS011;12832;52.392;13.066;2023-02-28T01:14:17;2.40;;;2.20;;
24729;SDS011;12832;52.392;13.066;2023-02-28T01:16:44;2.40;;;2.20;;
24729;SDS011;12832;52.392;13.066;2023-02-28T01:19:10;2.42;;;2.20;;
24729;SDS011;12832;52.392;13.066;2023-02-28T01:21:36;2.40;;;2.20;;
24729;SDS011;12832;52.392;13.066;2023-02-28T01:24:03;2.30;;;2.10;;
24729;SDS011;12832;52.392;13.066;2023-02-28T01:26:29;2.17;;;2.05;;
24729;SDS011;12832;52.392;13.066;2023-02-28T01:28:56;2.63;;;2.42;;
24729;SDS011;12832;52.392;13.066;2023-02-28T01:31:22;2.40;;;2.20;;
24729;SDS011;12832;52.392;13.066;2023-02-28T01:33:49;2.50;;;2.30;;
24729;SDS011;12832;52.392;13.066;2023-02-28T01:36:20;2.42;;;2.22;;
24729;SDS011;12832;52.392;13.066;2023-02-28T01:38:48;2.75;;;2.42;;
24729;SDS011;12832;52.392;13.066;2023-02-28T01:41:16;2.33;;;2.13;;
24729;SDS011;12832;52.392;13.066;2023-02-28T01:46:11;2.55;;;2.35;;
24729;SDS011;12832;52.392;13.066;2023-02-28T01:48:38;2.15;;;2.05;;
24729;SDS011;12832;52.392;13.066;2023-02-28T01:51:15;2.30;;;2.10;;
24729;SDS011;12832;52.392;13.066;2023-02-28T01:53:46;2.65;;;2.35;;
24729;SDS011;12832;52.392;13.066;2023-02-28T01:56:18;2.45;;;2.25;;
24729;SDS011;12832;52.392;13.066;2023-02-28T01:58:49;2.30;;;2.10;;
24729;SDS011;12832;52.392;13.066;2023-02-28T02:01:17;2.42;;;2.22;;
24729;SDS011;12832;52.392;13.066;2023-02-28T02:03:48;2.58;;;2.38;;
24729;SDS011;12832;52.392;13.066;2023-02-28T02:06:25;2.28;;;2.08;;
24729;SDS011;12832;52.392;13.066;2023-02-28T02:08:54;2.58;;;2.38;;
24729;SDS011;12832;52.392;13.066;2023-02-28T02:11:22;2.78;;;2.58;;
24729;SDS011;12832;52.392;13.066;2023-02-28T02:16:34;2.35;;;2.15;;
24729;SDS011;12832;52.392;13.066;2023-02-28T02:38:57;2.38;;;2.17;;
24729;SDS011;12832;52.392;13.066;2023-02-28T02:41:36;2.40;;;2.20;;
24729;SDS011;12832;52.392;13.066;2023-02-28T02:44:17;2.30;;;2.10;;
24729;SDS011;12832;52.392;13.066;2023-02-28T02:46:58;2.53;;;2.33;;
24729;SDS011;12832;52.392;13.066;2023-02-28T02:49:32;2.70;;;2.50;;
24729;SDS011;12832;52.392;13.066;2023-02-28T02:52:02;2.13;;;1.90;;
24729;SDS011;12832;52.392;13.066;2023-02-28T02:54:35;2.60;;;2.40;;
24729;SDS011;12832;52.392;13.066;2023-02-28T02:57:05;2.38;;;2.17;;
24729;SDS011;12832;52.392;13.066;2023-02-28T02:59:34;2.63;;;2.42;;
24729;SDS011;12832;52.392;13.066;2023-02-28T03:02:21;2.40;;;2.20;;
24729;SDS011;12832;52.392;13.066;2023-02-28T03:04:51;3.17;;;2.38;;
24729;SDS011;12832;52.392;13.066;2023-02-28T03:07:19;2.70;;;2.50;;
24729;SDS011;12832;52.392;13.066;2023-02-28T03:09:51;2.63;;;2.42;;
24729;SDS011;12832;52.392;13.066;2023-02-28T03:12:18;2.60;;;2.40;;
24729;SDS011;12832;52.392;13.066;2023-02-28T03:15:21;3.33;;;2.65;;
24729;SDS011;12832;52.392;13.066;2023-02-28T03:18:04;2.47;;;2.05;;
24729;SDS011;12832;52.392;13.066;2023-02-28T03:20:40;2.80;;;2.50;;
24729;SDS011;12832;52.392;13.066;2023-02-28T03:23:32;2.55;;;2.35;;
24729;SDS011;12832;52.392;13.066;2023-02-28T03:26:12;2.63;;;2.42;;
24729;SDS011;12832;52.392;13.066;2023-02-28T03:31:26;2.50;;;2.30;;
24729;SDS011;12832;52.392;13.066;2023-02-28T03:34:08;2.40;;;2.20;;
24729;SDS011;12832;52.392;13.066;2023-02-28T03:36:51;2.15;;;1.95;;
24729;SDS011;12832;52.392;13.066;2023-02-28T03:39:24;2.22;;;2.03;;
24729;SDS011;12832;52.392;13.066;2023-02-28T03:42:00;2.17;;;2.08;;
24729;SDS011;12832;52.392;13.066;2023-02-28T03:44:35;2.55;;;2.35;;
24729;SDS011;12832;52.392;13.066;2023-02-28T03:47:14;2.75;;;2.50;;
24729;SDS011;12832;52.392;13.066;2023-02-28T03:49:46;2.85;;;2.63;;
24729;SDS011;12832;52.392;13.066;2023-02-28T03:52:19;2.30;;;2.10;;
24729;SDS011;12832;52.392;13.066;2023-02-28T03:54:52;2.53;;;2.33;;
24729;SDS011;12832;52.392;13.066;2023-02-28T04:00:12;2.42;;;2.22;;
24729;SDS011;12832;52.392;13.066;2023-02-28T04:02:44;2.33;;;2.13;;
24729;SDS011;12832;52.392;13.066;2023-02-28T04:05:10;2.10;;;1.95;;
24729;SDS011;12832;52.392;13.066;2023-02-28T04:07:37;2.50;;;2.30;;
24729;SDS011;12832;52.392;13.066;2023-02-28T04:10:03;2.42;;;2.22;;
24729;SDS011;12832;52.392;13.066;2023-02-28T04:12:30;2.15;;;2.05;;
24729;SDS011;12832;52.392;13.066;2023-02-28T04:14:56;2.53;;;2.33;;
24729;SDS011;12832;52.392;13.066;2023-02-28T04:17:22;2.53;;;2.33;;
24729;SDS011;12832;52.392;13.066;2023-02-28T04:19:48;2.55;;;2.35;;
24729;SDS011;12832;52.392;13.066;2023-02-28T04:22:15;2.60;;;2.40;;
24729;SDS011;12832;52.392;13.066;2023-02-28T04:24:43;2.40;;;2.20;;
24729;SDS011;12832;52.392;13.066;2023-02-28T04:27:09;2.60;;;2.40;;
24729;SDS011;12832;52.392;13.066;2023-02-28T04:29:35;2.00;;;1.90;;
24729;SDS011;12832;52.392;13.066;2023-02-28T04:32:02;2.72;;;2.42;;
24729;SDS011;12832;52.392;13.066;2023-02-28T04:34:31;2.28;;;2.10;;
24729;SDS011;12832;52.392;13.066;2023-02-28T04:36:58;2.50;;;2.28;;
24729;SDS011;12832;52.392;13.066;2023-02-28T04:39:38;2.58;;;2.38;;
24729;SDS011;12832;52.392;13.066;2023-02-28T04:42:05;2.13;;;1.92;;
24729;SDS011;12832;52.392;13.066;2023-02-28T04:44:31;2.20;;;2.00;;
24729;SDS011;12832;52.392;13.066;2023-02-28T04:46:57;2.42;;;2.15;;
24729;SDS011;12832;52.392;13.066;2023-02-28T04:49:23;2.40;;;2.20;;
24729;SDS011;12832;52.392;13.066;2023-02-28T04:51:49;2.17;;;2.00;;
24729;SDS011;12832;52.392;13.066;2023-02-28T04:54:15;2.60;;;2.40;;
24729;SDS011;12832;52.392;13.066;2023-02-28T04:56:43;2.92;;;2.30;;
24729;SDS011;12832;52.392;13.066;2023-02-28T04:59:09;2.40;;;2.20;;
24729;SDS011;12832;52.392;13.066;2023-02-28T05:01:35;2.25;;;2.10;;
24729;SDS011;12832;52.392;13.066;2023-02-28T05:04:03;2.70;;;2.50;;
24729;SDS011;12832;52.392;13.066;2023-02-28T05:06:31;2.20;;;2.00;;
24729;SDS011;12832;52.392;13.066;2023-02-28T05:08:58;2.50;;;2.10;;
24729;SDS011;12832;52.392;13.066;2023-02-28T05:11:26;2.05;;;1.95;;
24729;SDS011;12832;52.392;13.066;2023-02-28T05:13:55;2.22;;;2.03;;
24729;SDS011;12832;52.392;13.066;2023-02-28T05:16:21;2.33;;;2.10;;
24729;SDS011;12832;52.392;13.066;2023-02-28T05:18:47;2.50;;;2.30;;
24729;SDS011;12832;52.392;13.066;2023-02-28T05:21:24;2.13;;;1.95;;
24729;SDS011;12832;52.392;13.066;2023-02-28T05:23:54;2.72;;;2.00;;
24729;SDS011;12832;52.392;13.066;2023-02-28T05:26:22;2.05;;;1.85;;
24729;SDS011;12832;52.392;13.066;2023-02-28T05:28:48;2.30;;;2.15;;
24729;SDS011;12832;52.392;13.066;2023-02-28T05:31:14;2.40;;;2.20;;
24729;SDS011;12832;52.392;13.066;2023-02-28T05:33:40;2.40;;;2.20;;
24729;SDS011;12832;52.392;13.066;2023-02-28T05:36:07;2.40;;;2.20;;
24729;SDS011;12832;52.392;13.066;2023-02-28T05:38:33;2.08;;;1.88;;
24729;SDS011;12832;52.392;13.066;2023-02-28T05:40:59;2.33;;;2.13;;
24729;SDS011;12832;52.392;13.066;2023-02-28T05:43:25;2.45;;;1.80;;
24729;SDS011;12832;52.392;13.066;2023-02-28T05:45:51;2.13;;;1.92;;
24729;SDS011;12832;52.392;13.066;2023-02-28T05:48:17;2.20;;;2.00;;
24729;SDS011;12832;52.392;13.066;2023-02-28T05:50:43;2.20;;;2.00;;
24729;SDS011;12832;52.392;13.066;2023-02-28T05:53:11;2.22;;;2.03;;
24729;SDS011;12832;52.392;13.066;2023-02-28T05:55:37;2.35;;;2.15;;
24729;SDS011;12832;52.392;13.066;2023-02-28T05:58:03;2.20;;;2.00;;
24729;SDS011;12832;52.392;13.066;2023-02-28T06:00:29;1.90;;;1.73;;
24729;SDS011;12832;52.392;13.066;2023-02-28T06:02:55;1.33;;;1.23;;
24729;SDS011;12832;52.392;13.066;2023-02-28T06:05:25;1.55;;;1.45;;
24729;SDS011;12832;52.392;13.066;2023-02-28T06:07:51;1.77;;;1.67;;
24729;SDS011;12832;52.392;13.066;2023-02-28T06:10:17;1.95;;;1.75;;
24729;SDS011;12832;52.392;13.066;2023-02-28T06:12:45;2.40;;;1.60;;
24729;SDS011;12832;52.392;13.066;2023-02-28T06:15:12;1.90;;;1.80;;
24729;SDS011;12832;52.392;13.066;2023-02-28T06:17:39;2.40;;;1.85;;
24729;SDS011;12832;52.392;13.066;2023-02-28T06:20:07;4.03;;;2.00;;
24729;SDS011;12832;52.392;13.066;2023-02-28T06:22:35;2.40;;;1.90;;
24729;SDS011;12832;52.392;13.066;2023-02-28T06:25:01;1.95;;;1.85;;
24729;SDS011;12832;52.392;13.066;2023-02-28T06:27:29;3.38;;;1.52;;
24729;SDS011;12832;52.392;13.066;2023-02-28T06:29:56;2.20;;;2.00;;
24729;SDS011;12832;52.392;13.066;2023-02-28T06:32:22;1.98;;;1.77;;
24729;SDS011;12832;52.392;13.066;2023-02-28T06:34:49;2.00;;;1.90;;
24729;SDS011;12832;52.392;13.066;2023-02-28T06:37:16;2.63;;;2.40;;
24729;SDS011;12832;52.392;13.066;2023-02-28T06:39:42;2.70;;;2.50;;
24729;SDS011;12832;52.392;13.066;2023-02-28T06:42:09;2.47;;;2.28;;
24729;SDS011;12832;52.392;13.066;2023-02-28T06:44:35;2.17;;;1.95;;
24729;SDS011;12832;52.392;13.066;2023-02-28T06:47:02;2.72;;;2.50;;
24729;SDS011;12832;52.392;13.066;2023-02-28T06:49:30;4.10;;;2.47;;
24729;SDS011;12832;52.392;13.066;2023-02-28T06:51:57;3.33;;;2.25;;
24729;SDS011;12832;52.392;13.066;2023-02-28T06:54:24;3.15;;;2.08;;
24729;SDS011;12832;52.392;13.066;2023-02-28T06:56:51;2.03;;;1.83;;
24729;SDS011;12832;52.392;13.066;2023-02-28T06:59:19;2.20;;;2.00;;
24729;SDS011;12832;52.392;13.066;2023-02-28T07:01:45;4.15;;;2.00;;
24729;SDS011;12832;52.392;13.066;2023-02-28T07:04:12;1.75;;;1.40;;
24729;SDS011;12832;52.392;13.066;2023-02-28T07:06:38;2.30;;;2.10;;
24729;SDS011;12832;52.392;13.066;2023-02-28T07:09:05;2.92;;;2.25;;
24729;SDS011;12832;52.392;13.066;2023-02-28T07:11:31;2.22;;;2.00;;
24729;SDS011;12832;52.392;13.066;2023-02-28T07:13:58;3.30;;;2.05;;
24729;SDS011;12832;52.392;13.066;2023-02-28T07:16:24;4.07;;;1.75;;
24729;SDS011;12832;52.392;13.066;2023-02-28T07:18:54;2.20;;;1.98;;
24729;SDS011;12832;52.392;13.066;2023-02-28T07:21:20;2.00;;;1.80;;
24729;SDS011;12832;52.392;13.066;2023-02-28T07:23:47;2.47;;;1.80;;
24729;SDS011;12832;52.392;13.066;2023-02-28T07:26:14;2.08;;;1.88;;
24729;SDS011;12832;52.392;13.066;2023-02-28T07:28:43;2.47;;;1.70;;
24729;SDS011;12832;52.392;13.066;2023-02-28T07:31:10;1.75;;;1.65;;
24729;SDS011;12832;52.392;13.066;2023-02-28T07:33:37;1.75;;;1.50;;
24729;SDS011;12832;52.392;13.066;2023-02-28T07:36:05;2.22;;;1.70;;
24729;SDS011;12832;52.392;13.066;2023-02-28T07:38:33;2.00;;;1.90;;
24729;SDS011;12832;52.392;13.066;2023-02-28T07:41:01;2.42;;;1.70;;
24729;SDS011;12832;52.392;13.066;2023-02-28T07:43:30;2.72;;;1.95;;
24729;SDS011;12832;52.392;13.066;2023-02-28T07:46:04;2.65;;;1.52;;
24729;SDS011;12832;52.392;13.066;2023-02-28T07:48:31;2.28;;;2.00;;
24729;SDS011;12832;52.392;13.066;2023-02-28T07:50:58;2.13;;;1.92;;
24729;SDS011;12832;52.392;13.066;2023-02-28T07:53:25;1.48;;;1.38;;
24729;SDS011;12832;52.392;13.066;2023-02-28T07:55:59;1.65;;;1.40;;
24729;SDS011;12832;52.392;13.066;2023-02-28T07:58:26;1.58;;;1.48;;
24729;SDS011;12832;52.392;13.066;2023-02-28T08:00:53;2.05;;;1.85;;
24729;SDS011;12832;52.392;13.066;2023-02-28T08:03:20;1.88;;;1.75;;
24729;SDS011;12832;52.392;13.066;2023-02-28T08:05:48;2.13;;;1.92;;
24729;SDS011;12832;52.392;13.066;2023-02-28T08:08:15;3.53;;;2.50;;
24729;SDS011;12832;52.392;13.066;2023-02-28T08:10:42;3.35;;;3.08;;
24729;SDS011;12832;52.392;13.066;2023-02-28T08:13:10;3.05;;;2.67;;
24729;SDS011;12832;52.392;13.066;2023-02-28T08:15:36;2.75;;;2.35;;
24729;SDS011;12832;52.392;13.066;2023-02-28T08:18:02;2.42;;;2.22;;
24729;SDS011;12832;52.392;13.066;2023-02-28T08:20:29;3.00;;;2.70;;
24729;SDS011;12832;52.392;13.066;2023-02-28T08:22:56;2.95;;;2.15;;
24729;SDS011;12832;52.392;13.066;2023-02-28T08:25:22;3.42;;;2.50;;
24729;SDS011;12832;52.392;13.066;2023-02-28T08:27:50;2.13;;;1.95;;
24729;SDS011;12832;52.392;13.066;2023-02-28T08:30:17;3.35;;;3.05;;
24729;SDS011;12832;52.392;13.066;2023-02-28T08:32:44;3.65;;;2.88;;
24729;SDS011;12832;52.392;13.066;2023-02-28T08:35:10;2.58;;;2.38;;
24729;SDS011;12832;52.392;13.066;2023-02-28T08:37:36;3.38;;;2.88;;
24729;SDS011;12832;52.392;13.066;2023-02-28T08:40:02;3.00;;;2.70;;
24729;SDS011;12832;52.392;13.066;2023-02-28T08:42:29;2.67;;;2.40;;
24729;SDS011;12832;52.392;13.066;2023-02-28T08:44:57;2.92;;;2.58;;
24729;SDS011;12832;52.392;13.066;2023-02-28T08:47:23;3.03;;;2.83;;
24729;SDS011;12832;52.392;13.066;2023-02-28T08:49:49;2.90;;;2.47;;
24729;SDS011;12832;52.392;13.066;2023-02-28T08:52:16;2.67;;;2.47;;
24729;SDS011;12832;52.392;13.066;2023-02-28T08:54:42;3.65;;;2.33;;
24729;SDS011;12832;52.392;13.066;2023-02-28T08:57:08;3.20;;;2.38;;
24729;SDS011;12832;52.392;13.066;2023-02-28T08:59:34;2.40;;;2.20;;
24729;SDS011;12832;52.392;13.066;2023-02-28T09:02:00;3.42;;;2.53;;
24729;SDS011;12832;52.392;13.066;2023-02-28T09:04:26;2.85;;;2.20;;
24729;SDS011;12832;52.392;13.066;2023-02-28T09:06:52;3.30;;;2.47;;
24729;SDS011;12832;52.392;13.066;2023-02-28T09:09:19;4.60;;;2.10;;
24729;SDS011;12832;52.392;13.066;2023-02-28T09:11:45;3.75;;;2.28;;
24729;SDS011;12832;52.392;13.066;2023-02-28T09:14:11;2.85;;;2.40;;
24729;SDS011;12832;52.392;13.066;2023-02-28T09:16:37;3.13;;;2.22;;
24729;SDS011;12832;52.392;13.066;2023-02-28T09:19:04;2.15;;;1.95;;
24729;SDS011;12832;52.392;13.066;2023-02-28T09:21:30;2.58;;;2.10;;
24729;SDS011;12832;52.392;13.066;2023-02-28T09:23:56;2.78;;;2.30;;
24729;SDS011;12832;52.392;13.066;2023-02-28T09:26:23;2.50;;;2.00;;
24729;SDS011;12832;52.392;13.066;2023-02-28T09:28:51;2.10;;;1.90;;
24729;SDS011;12832;52.392;13.066;2023-02-28T09:31:21;2.42;;;2.00;;
24729;SDS011;12832;52.392;13.066;2023-02-28T09:33:49;3.88;;;2.10;;
24729;SDS011;12832;52.392;13.066;2023-02-28T09:36:17;3.03;;;2.10;;
24729;SDS011;12832;52.392;13.066;2023-02-28T09:38:44;2.30;;;1.52;;
24729;SDS011;12832;52.392;13.066;2023-02-28T09:41:15;2.22;;;2.03;;
24729;SDS011;12832;52.392;13.066;2023-02-28T09:43:49;1.95;;;1.80;;
24729;SDS011;12832;52.392;13.066;2023-02-28T09:48:53;2.15;;;1.77;;
24729;SDS011;12832;52.392;13.066;2023-02-28T09:54:21;3.08;;;1.88;;
24729;SDS011;12832;52.392;13.066;2023-02-28T10:02:21;1.95;;;1.80;;
24729;SDS011;12832;52.392;13.066;2023-02-28T10:05:11;3.83;;;2.13;;
24729;SDS011;12832;52.392;13.066;2023-02-28T10:10:37;2.63;;;2.00;;
24729;SDS011;12832;52.392;13.066;2023-02-28T10:13:23;2.42;;;1.85;;
24729;SDS011;12832;52.392;13.066;2023-02-28T10:15:56;4.53;;;1.77;;
24729;SDS011;12832;52.392;13.066;2023-02-28T10:18:39;2.13;;;1.92;;
24729;SDS011;12832;52.392;13.066;2023-02-28T10:21:17;2.17;;;1.60;;
24729;SDS011;12832;52.392;13.066;2023-02-28T10:23:49;1.98;;;1.45;;
24729;SDS011;12832;52.392;13.066;2023-02-28T10:26:24;1.60;;;1.50;;
24729;SDS011;12832;52.392;13.066;2023-02-28T10:28:54;2.83;;;1.60;;
24729;SDS011;12832;52.392;13.066;2023-02-28T10:31:20;1.70;;;1.60;;
24729;SDS011;12832;52.392;13.066;2023-02-28T10:33:48;3.25;;;1.63;;
24729;SDS011;12832;52.392;13.066;2023-02-28T10:36:16;2.30;;;1.45;;
24729;SDS011;12832;52.392;13.066;2023-02-28T10:38:45;1.65;;;1.55;;
24729;SDS011;12832;52.392;13.066;2023-02-28T10:41:13;1.98;;;1.70;;
24729;SDS011;12832;52.392;13.066;2023-02-28T10:46:58;2.60;;;1.50;;
24729;SDS011;12832;52.392;13.066;2023-02-28T10:49:25;2.42;;;1.33;;
24729;SDS011;12832;52.392;13.066;2023-02-28T10:51:57;3.10;;;1.60;;
24729;SDS011;12832;52.392;13.066;2023-02-28T10:54:29;2.97;;;1.50;;
24729;SDS011;12832;52.392;13.066;2023-02-28T10:59:40;2.50;;;1.70;;
24729;SDS011;12832;52.392;13.066;2023-02-28T11:02:29;2.67;;;1.48;;
24729;SDS011;12832;52.392;13.066;2023-02-28T11:04:57;1.80;;;1.60;;
24729;SDS011;12832;52.392;13.066;2023-02-28T11:07:23;2.00;;;1.60;;
24729;SDS011;12832;52.392;13.066;2023-02-28T11:09:56;1.65;;;1.40;;
24729;SDS011;12832;52.392;13.066;2023-02-28T11:12:25;1.92;;;1.60;;
24729;SDS011;12832;52.392;13.066;2023-02-28T11:15:00;1.63;;;1.17;;
24729;SDS011;12832;52.392;13.066;2023-02-28T11:17:32;2.78;;;1.40;;
24729;SDS011;12832;52.392;13.066;2023-02-28T11:20:02;3.05;;;1.90;;
24729;SDS011;12832;52.392;13.066;2023-02-28T11:22:33;2.17;;;1.77;;
24729;SDS011;12832;52.392;13.066;2023-02-28T11:25:09;2.45;;;1.60;;
24729;SDS011;12832;52.392;13.066;2023-02-28T11:27:51;2.10;;;1.70;;
24729;SDS011;12832;52.392;13.066;2023-02-28T11:30:23;2.65;;;1.65;;
24729;SDS011;12832;52.392;13.066;2023-02-28T11:32:50;1.70;;;1.50;;
24729;SDS011;12832;52.392;13.066;2023-02-28T11:35:18;2.28;;;2.05;;
24729;SDS011;12832;52.392;13.066;2023-02-28T11:37:50;2.95;;;2.00;;
24729;SDS011;12832;52.392;13.066;2023-02-28T11:40:38;2.47;;;1.50;;
24729;SDS011;12832;52.392;13.066;2023-02-28T11:43:17;1.88;;;1.40;;
24729;SDS011;12832;52.392;13.066;2023-02-28T11:48:40;1.80;;;1.48;;
24729;SDS011;12832;52.392;13.066;2023-02-28T11:51:24;3.42;;;1.38;;
24729;SDS011;12832;52.392;13.066;2023-02-28T11:56:39;3.25;;;1.35;;
24729;SDS011;12832;52.392;13.066;2023-02-28T12:02:06;2.65;;;1.70;;
24729;SDS011;12832;52.392;13.066;2023-02-28T12:07:40;2.53;;;1.50;;
24729;SDS011;12832;52.392;13.066;2023-02-28T12:10:30;1.50;;;1.40;;
24729;SDS011;12832;52.392;13.066;2023-02-28T12:13:08;1.88;;;1.67;;
24729;SDS011;12832;52.392;13.066;2023-02-28T12:15:50;3.15;;;2.42;;
24729;SDS011;12832;52.392;13.066;2023-02-28T12:21:38;2.45;;;1.92;;
24729;SDS011;12832;52.392;13.066;2023-02-28T12:24:21;2.15;;;1.85;;
24729;SDS011;12832;52.392;13.066;2023-02-28T12:26:59;2.15;;;1.95;;
24729;SDS011;12832;52.392;13.066;2023-02-28T12:29:34;2.15;;;1.70;;
24729;SDS011;12832;52.392;13.066;2023-02-28T12:32:30;3.05;;;1.88;;
24729;SDS011;12832;52.392;13.066;2023-02-28T12:37:46;2.15;;;1.85;;
24729;SDS011;12832;52.392;13.066;2023-02-28T12:40:33;1.73;;;1.63;;
24729;SDS011;12832;52.392;13.066;2023-02-28T12:43:09;3.05;;;1.58;;
24729;SDS011;12832;52.392;13.066;2023-02-28T12:45:58;2.15;;;1.85;;
24729;SDS011;12832;52.392;13.066;2023-02-28T12:51:08;2.92;;;2.15;;
24729;SDS011;12832;52.392;13.066;2023-02-28T12:56:09;2.70;;;2.22;;
24729;SDS011;12832;52.392;13.066;2023-02-28T13:07:05;2.10;;;1.88;;
24729;SDS011;12832;52.392;13.066;2023-02-28T13:09:33;2.75;;;2.30;;
24729;SDS011;12832;52.392;13.066;2023-02-28T13:11:59;2.33;;;2.05;;
24729;SDS011;12832;52.392;13.066;2023-02-28T13:14:27;7.03;;;2.28;;
24729;SDS011;12832;52.392;13.066;2023-02-28T13:16:59;3.33;;;1.92;;
24729;SDS011;12832;52.392;13.066;2023-02-28T13:19:33;2.28;;;2.08;;
24729;SDS011;12832;52.392;13.066;2023-02-28T13:22:09;2.53;;;1.73;;
24729;SDS011;12832;52.392;13.066;2023-02-28T13:24:54;2.75;;;2.25;;
24729;SDS011;12832;52.392;13.066;2023-02-28T13:27:22;3.50;;;1.95;;
24729;SDS011;12832;52.392;13.066;2023-02-28T13:29:57;2.30;;;1.60;;
24729;SDS011;12832;52.392;13.066;2023-02-28T13:32:31;2.42;;;1.73;;
24729;SDS011;12832;52.392;13.066;2023-02-28T13:39:56;3.72;;;1.67;;
24729;SDS011;12832;52.392;13.066;2023-02-28T13:47:30;1.92;;;1.73;;
24729;SDS011;12832;52.392;13.066;2023-02-28T14:04:11;1.65;;;1.55;;
24729;SDS011;12832;52.392;13.066;2023-02-28T14:06:56;2.03;;;1.63;;
24729;SDS011;12832;52.392;13.066;2023-02-28T14:09:24;1.70;;;1.38;;
24729;SDS011;12832;52.392;13.066;2023-02-28T14:11:57;1.70;;;1.40;;
24729;SDS011;12832;52.392;13.066;2023-02-28T14:17:15;1.83;;;1.55;;
24729;SDS011;12832;52.392;13.066;2023-02-28T14:19:46;3.05;;;1.48;;
24729;SDS011;12832;52.392;13.066;2023-02-28T14:28:37;1.30;;;1.20;;
24729;SDS011;12832;52.392;13.066;2023-02-28T14:31:29;1.48;;;1.38;;
24729;SDS011;12832;52.392;13.066;2023-02-28T14:34:45;1.50;;;1.27;;
24729;SDS011;12832;52.392;13.066;2023-02-28T14:37:16;1.05;;;0.98;;
24729;SDS011;12832;52.392;13.066;2023-02-28T14:39:48;1.27;;;1.17;;
24729;SDS011;12832;52.392;13.066;2023-02-28T14:42:28;1.42;;;1.33;;
24729;SDS011;12832;52.392;13.066;2023-02-28T14:44:59;1.67;;;1.48;;
24729;SDS011;12832;52.392;13.066;2023-02-28T14:47:27;1.40;;;1.30;;
24729;SDS011;12832;52.392;13.066;2023-02-28T14:49:57;1.45;;;1.15;;
24729;SDS011;12832;52.392;13.066;2023-02-28T14:52:26;0.77;;;0.77;;
24729;SDS011;12832;52.392;13.066;2023-02-28T14:54:59;1.52;;;1.15;;
24729;SDS011;12832;52.392;13.066;2023-02-28T14:57:31;1.60;;;1.50;;
24729;SDS011;12832;52.392;13.066;2023-02-28T15:02:42;1.92;;;1.73;;
24729;SDS011;12832;52.392;13.066;2023-02-28T15:07:44;2.72;;;2.30;;
24729;SDS011;12832;52.392;13.066;2023-02-28T15:12:37;2.42;;;2.03;;
24729;SDS011;12832;52.392;13.066;2023-02-28T15:15:05;3.30;;;2.40;;
24729;SDS011;12832;52.392;13.066;2023-02-28T15:17:33;2.40;;;2.20;;
24729;SDS011;12832;52.392;13.066;2023-02-28T15:20:00;3.88;;;2.50;;
24729;SDS011;12832;52.392;13.066;2023-02-28T15:22:29;2.67;;;2.30;;
24729;SDS011;12832;52.392;13.066;2023-02-28T15:25:01;2.83;;;2.38;;
24729;SDS011;12832;52.392;13.066;2023-02-28T15:27:30;2.85;;;2.20;;
24729;SDS011;12832;52.392;13.066;2023-02-28T15:29:59;2.88;;;2.38;;
24729;SDS011;12832;52.392;13.066;2023-02-28T15:32:33;3.45;;;2.67;;
24729;SDS011;12832;52.392;13.066;2023-02-28T15:40:28;4.72;;;2.83;;
24729;SDS011;12832;52.392;13.066;2023-02-28T15:43:18;3.35;;;2.80;;
24729;SDS011;12832;52.392;13.066;2023-02-28T15:46:01;3.72;;;2.88;;
24729;SDS011;12832;52.392;13.066;2023-02-28T15:48:50;4.93;;;2.50;;
24729;SDS011;12832;52.392;13.066;2023-02-28T15:51:18;5.30;;;2.75;;
24729;SDS011;12832;52.392;13.066;2023-02-28T15:53:51;4.43;;;2.63;;
24729;SDS011;12832;52.392;13.066;2023-02-28T15:56:28;4.07;;;2.55;;
24729;SDS011;12832;52.392;13.066;2023-02-28T15:59:01;3.35;;;2.15;;
24729;SDS011;12832;52.392;13.066;2023-02-28T16:01:31;2.75;;;2.15;;
24729;SDS011;12832;52.392;13.066;2023-02-28T16:04:05;2.80;;;1.85;;
24729;SDS011;12832;52.392;13.066;2023-02-28T16:06:41;2.85;;;2.25;;
24729;SDS011;12832;52.392;13.066;2023-02-28T16:09:11;2.40;;;2.08;;
24729;SDS011;12832;52.392;13.066;2023-02-28T16:11:40;1.92;;;1.60;;
24729;SDS011;12832;52.392;13.066;2023-02-28T16:14:11;1.75;;;1.40;;
24729;SDS011;12832;52.392;13.066;2023-02-28T16:16:48;3.28;;;1.63;;
24729;SDS011;12832;52.392;13.066;2023-02-28T16:19:17;2.13;;;1.70;;
24729;SDS011;12832;52.392;13.066;2023-02-28T16:21:44;2.10;;;1.70;;
24729;SDS011;12832;52.392;13.066;2023-02-28T16:24:11;1.30;;;1.20;;
24729;SDS011;12832;52.392;13.066;2023-02-28T16:26:38;1.50;;;1.40;;
24729;SDS011;12832;52.392;13.066;2023-02-28T16:29:13;1.27;;;1.17;;
24729;SDS011;12832;52.392;13.066;2023-02-28T16:31:45;1.35;;;1.25;;
24729;SDS011;12832;52.392;13.066;2023-02-28T16:34:11;1.27;;;1.17;;
24729;SDS011;12832;52.392;13.066;2023-02-28T16:36:38;1.60;;;1.25;;
24729;SDS011;12832;52.392;13.066;2023-02-28T16:39:05;1.35;;;1.25;;
24729;SDS011;12832;52.392;13.066;2023-02-28T16:41:31;1.27;;;1.17;;
24729;SDS011;12832;52.392;13.066;2023-02-28T16:43:59;1.40;;;1.00;;
24729;SDS011;12832;52.392;13.066;2023-02-28T16:46:27;1.27;;;1.10;;
24729;SDS011;12832;52.392;13.066;2023-02-28T16:48:58;1.40;;;1.30;;
24729;SDS011;12832;52.392;13.066;2023-02-28T16:51:24;1.10;;;1.00;;
24729;SDS011;12832;52.392;13.066;2023-02-28T16:53:50;1.50;;;1.40;;
24729;SDS011;12832;52.392;13.066;2023-02-28T16:56:18;1.30;;;1.00;;
24729;SDS011;12832;52.392;13.066;2023-02-28T16:58:46;0.85;;;0.85;;